Aviation Digital Data Service (ADDS)

Output produced by METARs form (1203 UTC 24 February 2018)
found at http://www.aviationweather.gov/adds/metars/
 
TAF MPPA 241100Z 2412/2518 02006KT 9999 FEW020 
     TEMPO 2416/2420 02016KT
       
TAF MPDA 241100Z 2412/2418 00000KT 9999 FEW018 
     TEMPO 2419/2423 03012KT
       
TAF MPMG 241100Z 2412/2418 VRB02KT 9999 FEW020 
     TEMPO 2417/2421 34012KT 9999 SCT017
       
TAF MPTO 241100Z 2412/2518 00000KT 9999 FEW020 
     TEMPO 2416/2420 01012KT